Terminal Aerodrome Forecast
Issued by NWS Cleveland, OH

Home | Current Version | Previous Version | Graphics & Text | Print | Product List | Glossary On
Versions: 1 2 3 4 5 6 7 8 9 10 11 12
915
FTUS41 KCLE 222323
TAFYNG
TAF
KYNG 222323Z 2300/2324 15008KT P6SM BKN200
     FM231400 14012G20KT P6SM BKN050
     FM231800 14014G22KT P6SM VCSH BKN030
     FM232200 15015G25KT 5SM -SHRA OVC006=

USA.gov is the U.S. government's official web portal to all federal, state and local government web resources and services.